sensor_id;sensor_type;location;lat;lon;timestamp;P1;durP1;ratioP1;P2;durP2;ratioP2
28802;SDS011;15949;55.656;37.422;2022-11-02T00:00:29;12.82;;;5.97;;
28802;SDS011;15949;55.656;37.422;2022-11-02T00:05:35;12.43;;;5.60;;
28802;SDS011;15949;55.656;37.422;2022-11-02T00:10:41;15.10;;;5.72;;
28802;SDS011;15949;55.656;37.422;2022-11-02T00:15:46;13.88;;;5.22;;
28802;SDS011;15949;55.656;37.422;2022-11-02T00:20:52;9.57;;;4.93;;
28802;SDS011;15949;55.656;37.422;2022-11-02T00:26:00;10.20;;;5.30;;
28802;SDS011;15949;55.656;37.422;2022-11-02T00:31:06;13.85;;;5.18;;
28802;SDS011;15949;55.656;37.422;2022-11-02T00:36:12;16.95;;;5.03;;
28802;SDS011;15949;55.656;37.422;2022-11-02T00:41:18;12.55;;;4.88;;
28802;SDS011;15949;55.656;37.422;2022-11-02T00:46:24;11.45;;;5.05;;
28802;SDS011;15949;55.656;37.422;2022-11-02T00:51:30;9.00;;;4.93;;
28802;SDS011;15949;55.656;37.422;2022-11-02T00:56:35;13.95;;;4.75;;
28802;SDS011;15949;55.656;37.422;2022-11-02T01:01:43;9.80;;;4.70;;
28802;SDS011;15949;55.656;37.422;2022-11-02T01:06:53;9.23;;;5.10;;
28802;SDS011;15949;55.656;37.422;2022-11-02T01:11:59;12.68;;;5.00;;
28802;SDS011;15949;55.656;37.422;2022-11-02T01:17:05;10.35;;;5.20;;
28802;SDS011;15949;55.656;37.422;2022-11-02T01:22:10;8.90;;;4.80;;
28802;SDS011;15949;55.656;37.422;2022-11-02T01:27:16;14.02;;;4.55;;
28802;SDS011;15949;55.656;37.422;2022-11-02T01:32:22;14.52;;;5.10;;
28802;SDS011;15949;55.656;37.422;2022-11-02T01:37:27;11.25;;;4.97;;
28802;SDS011;15949;55.656;37.422;2022-11-02T01:42:33;12.77;;;4.57;;
28802;SDS011;15949;55.656;37.422;2022-11-02T01:47:39;10.07;;;4.93;;
28802;SDS011;15949;55.656;37.422;2022-11-02T01:52:49;9.65;;;5.28;;
28802;SDS011;15949;55.656;37.422;2022-11-02T01:57:59;10.50;;;5.47;;
28802;SDS011;15949;55.656;37.422;2022-11-02T02:03:11;11.00;;;5.25;;
28802;SDS011;15949;55.656;37.422;2022-11-02T02:08:23;8.85;;;4.97;;
28802;SDS011;15949;55.656;37.422;2022-11-02T02:13:29;11.23;;;5.07;;
28802;SDS011;15949;55.656;37.422;2022-11-02T02:18:40;16.23;;;5.55;;
28802;SDS011;15949;55.656;37.422;2022-11-02T02:35:26;11.23;;;4.43;;
28802;SDS011;15949;55.656;37.422;2022-11-02T02:40:48;8.88;;;4.30;;
28802;SDS011;15949;55.656;37.422;2022-11-02T02:46:04;11.77;;;4.88;;
28802;SDS011;15949;55.656;37.422;2022-11-02T02:51:21;12.60;;;5.15;;
28802;SDS011;15949;55.656;37.422;2022-11-02T02:56:35;11.82;;;5.40;;
28802;SDS011;15949;55.656;37.422;2022-11-02T03:01:46;15.20;;;5.60;;
28802;SDS011;15949;55.656;37.422;2022-11-02T03:06:53;11.35;;;5.80;;
28802;SDS011;15949;55.656;37.422;2022-11-02T03:39:05;17.38;;;6.57;;
28802;SDS011;15949;55.656;37.422;2022-11-02T03:44:18;14.70;;;6.60;;
28802;SDS011;15949;55.656;37.422;2022-11-02T03:49:27;15.55;;;5.97;;
28802;SDS011;15949;55.656;37.422;2022-11-02T03:54:41;10.38;;;4.30;;
28802;SDS011;15949;55.656;37.422;2022-11-02T04:00:04;9.82;;;5.30;;
28802;SDS011;15949;55.656;37.422;2022-11-02T04:05:11;11.45;;;4.63;;
28802;SDS011;15949;55.656;37.422;2022-11-02T04:10:17;12.52;;;5.05;;
28802;SDS011;15949;55.656;37.422;2022-11-02T04:15:22;10.77;;;5.53;;
28802;SDS011;15949;55.656;37.422;2022-11-02T04:20:28;13.88;;;5.80;;
28802;SDS011;15949;55.656;37.422;2022-11-02T04:25:34;14.77;;;5.93;;
28802;SDS011;15949;55.656;37.422;2022-11-02T04:30:39;16.08;;;6.35;;
28802;SDS011;15949;55.656;37.422;2022-11-02T04:35:45;17.75;;;7.30;;
28802;SDS011;15949;55.656;37.422;2022-11-02T04:40:50;17.95;;;8.40;;
28802;SDS011;15949;55.656;37.422;2022-11-02T04:46:16;24.08;;;9.23;;
28802;SDS011;15949;55.656;37.422;2022-11-02T04:51:22;29.73;;;11.40;;
28802;SDS011;15949;55.656;37.422;2022-11-02T04:56:34;37.95;;;14.15;;
28802;SDS011;15949;55.656;37.422;2022-11-02T05:01:40;33.92;;;14.82;;
28802;SDS011;15949;55.656;37.422;2022-11-02T05:06:45;27.45;;;14.40;;
28802;SDS011;15949;55.656;37.422;2022-11-02T05:11:51;29.80;;;13.45;;
28802;SDS011;15949;55.656;37.422;2022-11-02T05:16:57;40.20;;;22.90;;
28802;SDS011;15949;55.656;37.422;2022-11-02T05:22:02;31.50;;;16.55;;
28802;SDS011;15949;55.656;37.422;2022-11-02T05:27:09;37.58;;;17.38;;
28802;SDS011;15949;55.656;37.422;2022-11-02T05:32:14;21.98;;;9.52;;
28802;SDS011;15949;55.656;37.422;2022-11-02T05:37:20;22.67;;;10.55;;
28802;SDS011;15949;55.656;37.422;2022-11-02T05:42:26;20.15;;;11.90;;
28802;SDS011;15949;55.656;37.422;2022-11-02T05:47:32;23.52;;;11.48;;
28802;SDS011;15949;55.656;37.422;2022-11-02T05:52:38;35.58;;;18.60;;
28802;SDS011;15949;55.656;37.422;2022-11-02T05:57:49;20.27;;;10.50;;
28802;SDS011;15949;55.656;37.422;2022-11-02T06:02:58;21.48;;;10.57;;
28802;SDS011;15949;55.656;37.422;2022-11-02T06:08:04;19.05;;;9.43;;
28802;SDS011;15949;55.656;37.422;2022-11-02T06:13:10;14.98;;;6.82;;
28802;SDS011;15949;55.656;37.422;2022-11-02T06:18:15;16.20;;;6.65;;
28802;SDS011;15949;55.656;37.422;2022-11-02T06:23:21;16.15;;;7.13;;
28802;SDS011;15949;55.656;37.422;2022-11-02T06:28:27;18.92;;;8.38;;
28802;SDS011;15949;55.656;37.422;2022-11-02T06:33:33;18.38;;;9.27;;
28802;SDS011;15949;55.656;37.422;2022-11-02T06:38:39;23.85;;;7.68;;
28802;SDS011;15949;55.656;37.422;2022-11-02T06:43:46;23.10;;;14.05;;
28802;SDS011;15949;55.656;37.422;2022-11-02T06:48:52;16.15;;;8.32;;
28802;SDS011;15949;55.656;37.422;2022-11-02T06:53:57;14.75;;;6.78;;
28802;SDS011;15949;55.656;37.422;2022-11-02T06:59:04;17.20;;;6.82;;
28802;SDS011;15949;55.656;37.422;2022-11-02T07:04:09;17.40;;;8.68;;
28802;SDS011;15949;55.656;37.422;2022-11-02T07:09:15;17.40;;;7.93;;
28802;SDS011;15949;55.656;37.422;2022-11-02T07:14:20;17.75;;;7.70;;
28802;SDS011;15949;55.656;37.422;2022-11-02T07:19:26;16.85;;;8.15;;
28802;SDS011;15949;55.656;37.422;2022-11-02T07:24:32;22.05;;;8.43;;
28802;SDS011;15949;55.656;37.422;2022-11-02T07:29:38;25.30;;;8.80;;
28802;SDS011;15949;55.656;37.422;2022-11-02T07:34:44;19.63;;;8.80;;
28802;SDS011;15949;55.656;37.422;2022-11-02T07:39:50;25.05;;;13.80;;
28802;SDS011;15949;55.656;37.422;2022-11-02T07:44:55;21.58;;;11.95;;
28802;SDS011;15949;55.656;37.422;2022-11-02T07:50:01;26.33;;;11.00;;
28802;SDS011;15949;55.656;37.422;2022-11-02T07:55:07;18.92;;;8.70;;
28802;SDS011;15949;55.656;37.422;2022-11-02T08:00:13;21.42;;;9.15;;
28802;SDS011;15949;55.656;37.422;2022-11-02T08:05:18;22.48;;;9.30;;
28802;SDS011;15949;55.656;37.422;2022-11-02T08:10:24;25.70;;;9.10;;
28802;SDS011;15949;55.656;37.422;2022-11-02T08:15:30;23.58;;;10.82;;
28802;SDS011;15949;55.656;37.422;2022-11-02T08:20:36;26.90;;;11.50;;
28802;SDS011;15949;55.656;37.422;2022-11-02T08:25:42;32.97;;;11.95;;
28802;SDS011;15949;55.656;37.422;2022-11-02T08:30:49;32.75;;;14.07;;
28802;SDS011;15949;55.656;37.422;2022-11-02T08:35:59;39.28;;;18.85;;
28802;SDS011;15949;55.656;37.422;2022-11-02T08:41:07;36.80;;;17.25;;
28802;SDS011;15949;55.656;37.422;2022-11-02T08:46:13;36.03;;;17.90;;
28802;SDS011;15949;55.656;37.422;2022-11-02T08:51:18;49.38;;;23.83;;
28802;SDS011;15949;55.656;37.422;2022-11-02T08:56:25;29.67;;;14.40;;
28802;SDS011;15949;55.656;37.422;2022-11-02T09:01:30;35.25;;;18.15;;
28802;SDS011;15949;55.656;37.422;2022-11-02T09:06:36;37.90;;;17.50;;
28802;SDS011;15949;55.656;37.422;2022-11-02T09:11:42;29.50;;;14.48;;
28802;SDS011;15949;55.656;37.422;2022-11-02T09:16:48;31.13;;;14.25;;
28802;SDS011;15949;55.656;37.422;2022-11-02T09:21:53;40.40;;;17.17;;
28802;SDS011;15949;55.656;37.422;2022-11-02T09:26:59;33.33;;;17.35;;
28802;SDS011;15949;55.656;37.422;2022-11-02T09:32:05;27.40;;;13.85;;
28802;SDS011;15949;55.656;37.422;2022-11-02T09:37:10;20.45;;;11.25;;
28802;SDS011;15949;55.656;37.422;2022-11-02T09:42:30;21.90;;;11.15;;
28802;SDS011;15949;55.656;37.422;2022-11-02T09:47:44;25.92;;;12.13;;
28802;SDS011;15949;55.656;37.422;2022-11-02T09:52:55;23.92;;;11.75;;
28802;SDS011;15949;55.656;37.422;2022-11-02T09:58:10;31.83;;;14.38;;
28802;SDS011;15949;55.656;37.422;2022-11-02T10:14:22;28.05;;;12.40;;
28802;SDS011;15949;55.656;37.422;2022-11-02T10:19:33;22.75;;;13.18;;
28802;SDS011;15949;55.656;37.422;2022-11-02T10:24:45;30.48;;;14.82;;
28802;SDS011;15949;55.656;37.422;2022-11-02T10:35:00;34.08;;;14.52;;
28802;SDS011;15949;55.656;37.422;2022-11-02T10:40:18;32.35;;;13.43;;
28802;SDS011;15949;55.656;37.422;2022-11-02T10:45:36;30.80;;;15.47;;
28802;SDS011;15949;55.656;37.422;2022-11-02T10:51:12;25.75;;;10.85;;
28802;SDS011;15949;55.656;37.422;2022-11-02T10:56:23;21.80;;;11.55;;
28802;SDS011;15949;55.656;37.422;2022-11-02T11:01:33;27.60;;;9.60;;
28802;SDS011;15949;55.656;37.422;2022-11-02T11:06:39;18.52;;;9.18;;
28802;SDS011;15949;55.656;37.422;2022-11-02T11:17:17;15.55;;;7.65;;
28802;SDS011;15949;55.656;37.422;2022-11-02T11:22:36;20.65;;;8.60;;
28802;SDS011;15949;55.656;37.422;2022-11-02T11:27:50;19.35;;;8.10;;
28802;SDS011;15949;55.656;37.422;2022-11-02T11:32:56;17.10;;;9.35;;
28802;SDS011;15949;55.656;37.422;2022-11-02T11:38:04;24.05;;;9.50;;
28802;SDS011;15949;55.656;37.422;2022-11-02T11:43:14;22.45;;;11.07;;
28802;SDS011;15949;55.656;37.422;2022-11-02T12:04:47;27.08;;;10.65;;
28802;SDS011;15949;55.656;37.422;2022-11-02T12:10:07;20.08;;;10.27;;
28802;SDS011;15949;55.656;37.422;2022-11-02T12:15:19;19.45;;;9.88;;
28802;SDS011;15949;55.656;37.422;2022-11-02T12:31:45;19.50;;;9.88;;
28802;SDS011;15949;55.656;37.422;2022-11-02T12:42:38;20.40;;;10.40;;
28802;SDS011;15949;55.656;37.422;2022-11-02T12:58:35;19.67;;;9.73;;
28802;SDS011;15949;55.656;37.422;2022-11-02T13:03:56;20.00;;;10.18;;
28802;SDS011;15949;55.656;37.422;2022-11-02T13:09:25;25.85;;;11.07;;
28802;SDS011;15949;55.656;37.422;2022-11-02T13:14:43;20.00;;;11.20;;
28802;SDS011;15949;55.656;37.422;2022-11-02T13:19:55;30.80;;;13.65;;
28802;SDS011;15949;55.656;37.422;2022-11-02T13:30:26;30.55;;;14.00;;
28802;SDS011;15949;55.656;37.422;2022-11-02T13:35:33;29.42;;;14.75;;
28802;SDS011;15949;55.656;37.422;2022-11-02T13:40:43;25.13;;;12.90;;
28802;SDS011;15949;55.656;37.422;2022-11-02T13:46:04;18.88;;;10.05;;
28802;SDS011;15949;55.656;37.422;2022-11-02T13:56:38;19.80;;;12.57;;
28802;SDS011;15949;55.656;37.422;2022-11-02T14:01:44;28.60;;;12.90;;
28802;SDS011;15949;55.656;37.422;2022-11-02T14:06:57;28.55;;;15.05;;
28802;SDS011;15949;55.656;37.422;2022-11-02T14:17:16;29.45;;;14.98;;
28802;SDS011;15949;55.656;37.422;2022-11-02T14:22:22;29.08;;;13.93;;
28802;SDS011;15949;55.656;37.422;2022-11-02T14:27:28;23.95;;;13.10;;
28802;SDS011;15949;55.656;37.422;2022-11-02T14:32:41;27.13;;;14.00;;
28802;SDS011;15949;55.656;37.422;2022-11-02T14:38:20;29.73;;;13.90;;
28802;SDS011;15949;55.656;37.422;2022-11-02T14:48:58;23.90;;;12.98;;
28802;SDS011;15949;55.656;37.422;2022-11-02T14:59:28;24.65;;;12.43;;
28802;SDS011;15949;55.656;37.422;2022-11-02T15:04:49;26.65;;;11.90;;
28802;SDS011;15949;55.656;37.422;2022-11-02T15:10:33;33.70;;;12.40;;
28802;SDS011;15949;55.656;37.422;2022-11-02T15:15:35;25.42;;;11.95;;
28802;SDS011;15949;55.656;37.422;2022-11-02T15:20:41;23.88;;;11.63;;
28802;SDS011;15949;55.656;37.422;2022-11-02T15:25:48;23.75;;;12.50;;
28802;SDS011;15949;55.656;37.422;2022-11-02T15:30:56;22.50;;;10.83;;
28802;SDS011;15949;55.656;37.422;2022-11-02T15:36:06;23.50;;;11.52;;
28802;SDS011;15949;55.656;37.422;2022-11-02T15:52:11;21.63;;;10.90;;
28802;SDS011;15949;55.656;37.422;2022-11-02T15:57:35;25.35;;;11.75;;
28802;SDS011;15949;55.656;37.422;2022-11-02T16:02:47;20.00;;;11.30;;
28802;SDS011;15949;55.656;37.422;2022-11-02T16:07:56;23.63;;;12.13;;
28802;SDS011;15949;55.656;37.422;2022-11-02T16:13:12;24.75;;;11.90;;
28802;SDS011;15949;55.656;37.422;2022-11-02T16:23:41;26.33;;;13.32;;
28802;SDS011;15949;55.656;37.422;2022-11-02T16:28:53;34.72;;;14.52;;
28802;SDS011;15949;55.656;37.422;2022-11-02T16:34:02;31.03;;;13.60;;
28802;SDS011;15949;55.656;37.422;2022-11-02T16:39:28;25.27;;;12.52;;
28802;SDS011;15949;55.656;37.422;2022-11-02T16:44:38;23.98;;;10.82;;
28802;SDS011;15949;55.656;37.422;2022-11-02T16:54:56;24.30;;;11.45;;
28802;SDS011;15949;55.656;37.422;2022-11-02T17:00:06;29.13;;;12.02;;
28802;SDS011;15949;55.656;37.422;2022-11-02T17:05:25;32.88;;;13.00;;
28802;SDS011;15949;55.656;37.422;2022-11-02T17:10:31;26.92;;;11.95;;
28802;SDS011;15949;55.656;37.422;2022-11-02T17:15:38;21.52;;;12.02;;
28802;SDS011;15949;55.656;37.422;2022-11-02T17:31:22;23.17;;;10.90;;
28802;SDS011;15949;55.656;37.422;2022-11-02T17:36:41;22.13;;;11.35;;
28802;SDS011;15949;55.656;37.422;2022-11-02T17:41:54;21.10;;;10.25;;
28802;SDS011;15949;55.656;37.422;2022-11-02T17:47:19;19.13;;;10.02;;
28802;SDS011;15949;55.656;37.422;2022-11-02T17:52:25;19.92;;;9.75;;
28802;SDS011;15949;55.656;37.422;2022-11-02T17:57:30;18.58;;;10.32;;
28802;SDS011;15949;55.656;37.422;2022-11-02T18:02:36;21.70;;;10.20;;
28802;SDS011;15949;55.656;37.422;2022-11-02T18:07:43;19.25;;;9.48;;
28802;SDS011;15949;55.656;37.422;2022-11-02T18:12:49;14.15;;;9.07;;
28802;SDS011;15949;55.656;37.422;2022-11-02T18:17:56;20.70;;;9.38;;
28802;SDS011;15949;55.656;37.422;2022-11-02T18:23:03;28.75;;;9.43;;
28802;SDS011;15949;55.656;37.422;2022-11-02T18:28:09;20.40;;;9.57;;
28802;SDS011;15949;55.656;37.422;2022-11-02T18:33:14;21.40;;;8.98;;
28802;SDS011;15949;55.656;37.422;2022-11-02T18:38:20;17.73;;;9.50;;
28802;SDS011;15949;55.656;37.422;2022-11-02T18:43:26;17.15;;;8.93;;
28802;SDS011;15949;55.656;37.422;2022-11-02T18:48:31;17.42;;;9.82;;
28802;SDS011;15949;55.656;37.422;2022-11-02T18:53:37;20.55;;;9.15;;
28802;SDS011;15949;55.656;37.422;2022-11-02T18:58:42;19.58;;;8.68;;
28802;SDS011;15949;55.656;37.422;2022-11-02T19:03:56;16.40;;;8.70;;
28802;SDS011;15949;55.656;37.422;2022-11-02T19:09:04;15.52;;;8.15;;
28802;SDS011;15949;55.656;37.422;2022-11-02T19:14:22;12.50;;;7.68;;
28802;SDS011;15949;55.656;37.422;2022-11-02T19:19:29;12.43;;;8.18;;
28802;SDS011;15949;55.656;37.422;2022-11-02T19:24:35;16.42;;;7.50;;
28802;SDS011;15949;55.656;37.422;2022-11-02T19:29:40;15.43;;;7.18;;
28802;SDS011;15949;55.656;37.422;2022-11-02T19:34:46;14.73;;;7.50;;
28802;SDS011;15949;55.656;37.422;2022-11-02T19:39:52;10.85;;;7.35;;
28802;SDS011;15949;55.656;37.422;2022-11-02T19:44:57;14.23;;;7.22;;
28802;SDS011;15949;55.656;37.422;2022-11-02T19:50:03;14.32;;;6.80;;
28802;SDS011;15949;55.656;37.422;2022-11-02T19:55:09;16.17;;;6.47;;
28802;SDS011;15949;55.656;37.422;2022-11-02T20:00:14;12.55;;;6.88;;
28802;SDS011;15949;55.656;37.422;2022-11-02T20:05:20;15.80;;;6.70;;
28802;SDS011;15949;55.656;37.422;2022-11-02T20:10:26;13.85;;;5.80;;
28802;SDS011;15949;55.656;37.422;2022-11-02T20:15:31;11.25;;;5.15;;
28802;SDS011;15949;55.656;37.422;2022-11-02T20:20:37;7.93;;;5.28;;
28802;SDS011;15949;55.656;37.422;2022-11-02T20:25:42;14.13;;;5.28;;
28802;SDS011;15949;55.656;37.422;2022-11-02T20:30:48;16.23;;;6.30;;
28802;SDS011;15949;55.656;37.422;2022-11-02T20:35:53;11.02;;;6.70;;
28802;SDS011;15949;55.656;37.422;2022-11-02T20:41:03;10.48;;;6.90;;
28802;SDS011;15949;55.656;37.422;2022-11-02T20:46:17;10.88;;;6.53;;
28802;SDS011;15949;55.656;37.422;2022-11-02T20:51:24;9.13;;;6.10;;
28802;SDS011;15949;55.656;37.422;2022-11-02T20:56:29;7.80;;;5.57;;
28802;SDS011;15949;55.656;37.422;2022-11-02T21:01:35;8.80;;;5.63;;
28802;SDS011;15949;55.656;37.422;2022-11-02T21:06:41;6.38;;;5.13;;
28802;SDS011;15949;55.656;37.422;2022-11-02T21:11:46;9.63;;;5.32;;
28802;SDS011;15949;55.656;37.422;2022-11-02T21:17:10;9.00;;;4.95;;
28802;SDS011;15949;55.656;37.422;2022-11-02T21:22:16;6.25;;;4.72;;
28802;SDS011;15949;55.656;37.422;2022-11-02T21:27:22;5.57;;;4.97;;
28802;SDS011;15949;55.656;37.422;2022-11-02T21:32:27;7.05;;;4.70;;
28802;SDS011;15949;55.656;37.422;2022-11-02T21:37:33;7.85;;;4.82;;
28802;SDS011;15949;55.656;37.422;2022-11-02T21:42:39;6.22;;;4.15;;
28802;SDS011;15949;55.656;37.422;2022-11-02T21:47:47;5.05;;;4.50;;
28802;SDS011;15949;55.656;37.422;2022-11-02T21:52:53;5.65;;;4.75;;
28802;SDS011;15949;55.656;37.422;2022-11-02T21:57:59;6.05;;;4.35;;
28802;SDS011;15949;55.656;37.422;2022-11-02T22:03:04;7.43;;;4.40;;
28802;SDS011;15949;55.656;37.422;2022-11-02T22:08:10;5.28;;;3.80;;
28802;SDS011;15949;55.656;37.422;2022-11-02T22:13:34;4.13;;;3.17;;
28802;SDS011;15949;55.656;37.422;2022-11-02T22:18:41;6.47;;;4.00;;
28802;SDS011;15949;55.656;37.422;2022-11-02T22:23:52;7.35;;;5.28;;
28802;SDS011;15949;55.656;37.422;2022-11-02T22:28:58;8.20;;;6.88;;
28802;SDS011;15949;55.656;37.422;2022-11-02T22:34:07;7.47;;;5.50;;
28802;SDS011;15949;55.656;37.422;2022-11-02T22:39:14;5.13;;;4.10;;
28802;SDS011;15949;55.656;37.422;2022-11-02T22:44:20;5.10;;;4.05;;
28802;SDS011;15949;55.656;37.422;2022-11-02T22:49:26;9.48;;;4.70;;
28802;SDS011;15949;55.656;37.422;2022-11-02T22:54:32;11.13;;;5.38;;
28802;SDS011;15949;55.656;37.422;2022-11-02T22:59:37;6.18;;;3.85;;
28802;SDS011;15949;55.656;37.422;2022-11-02T23:04:43;4.57;;;3.65;;
28802;SDS011;15949;55.656;37.422;2022-11-02T23:09:48;4.57;;;3.50;;
28802;SDS011;15949;55.656;37.422;2022-11-02T23:14:54;5.53;;;3.70;;
28802;SDS011;15949;55.656;37.422;2022-11-02T23:19:59;4.07;;;3.60;;
28802;SDS011;15949;55.656;37.422;2022-11-02T23:25:05;4.80;;;3.65;;
28802;SDS011;15949;55.656;37.422;2022-11-02T23:30:22;5.22;;;3.63;;
28802;SDS011;15949;55.656;37.422;2022-11-02T23:35:46;4.15;;;3.70;;
28802;SDS011;15949;55.656;37.422;2022-11-02T23:41:10;5.45;;;4.60;;
28802;SDS011;15949;55.656;37.422;2022-11-02T23:46:16;6.13;;;4.47;;
28802;SDS011;15949;55.656;37.422;2022-11-02T23:51:22;8.45;;;5.85;;
28802;SDS011;15949;55.656;37.422;2022-11-02T23:56:46;6.10;;;4.38;;
